Time,TemperatureF,DewpointF,PressureIn,WindDirection,WindDirectionDegrees,WindSpeedMPH,WindSpeedGustMPH,Humidity,HourlyPrecipIn,Conditions,Clouds,dailyrainin,SoftwareType,DateUTC
2013-01-03 00:02:00,23.2,15.4,30.16,NW,310,0.0,0.0,72,0.00,,,0.00,meteohub,2013-01-03 05:02:00,
2013-01-03 00:03:00,23.2,15.4,30.16,NW,310,0.0,0.0,72,0.00,,,0.00,meteohub,2013-01-03 05:03:00,
2013-01-03 00:08:00,23.2,15.4,30.16,NW,310,0.0,0.0,72,0.00,,,0.00,meteohub,2013-01-03 05:08:00,
2013-01-03 00:13:00,23.0,15.3,30.16,NW,310,0.0,0.0,72,0.00,,,0.00,meteohub,2013-01-03 05:13:00,
2013-01-03 00:18:00,23.0,15.3,30.16,NW,310,0.0,0.0,72,0.00,,,0.00,meteohub,2013-01-03 05:18:00,
2013-01-03 00:24:00,23.0,15.3,30.17,NW,310,0.0,0.0,72,0.00,,,0.00,meteohub,2013-01-03 05:24:00,
2013-01-03 00:29:00,22.8,14.9,30.17,NW,310,0.0,0.0,71,0.00,,,0.00,meteohub,2013-01-03 05:29:00,
2013-01-03 00:34:00,22.8,15.1,30.17,NW,310,0.0,0.0,72,0.00,,,0.00,meteohub,2013-01-03 05:34:00,
2013-01-03 00:39:00,22.6,14.9,30.17,NW,310,0.0,0.0,72,0.00,,,0.00,meteohub,2013-01-03 05:39:00,
2013-01-03 00:44:00,22.6,14.9,30.17,NW,310,0.0,0.0,72,0.00,,,0.00,meteohub,2013-01-03 05:44:00,
2013-01-03 00:49:00,22.5,14.7,30.17,NW,310,0.0,0.0,72,0.00,,,0.00,meteohub,2013-01-03 05:49:00,
2013-01-03 00:54:00,22.5,14.7,30.17,NW,310,0.0,0.0,72,0.00,,,0.00,meteohub,2013-01-03 05:54:00,
2013-01-03 01:00:00,22.3,14.4,30.17,NW,310,0.0,0.0,71,0.00,,,0.00,meteohub,2013-01-03 06:00:00,
2013-01-03 01:05:00,22.1,13.8,30.17,NW,310,0.0,0.0,70,0.00,,,0.00,meteohub,2013-01-03 06:05:00,
2013-01-03 01:10:00,22.1,13.8,30.17,NW,310,0.0,0.0,70,0.00,,,0.00,meteohub,2013-01-03 06:10:00,
2013-01-03 01:15:00,22.1,13.5,30.17,NW,310,0.0,0.0,69,0.00,,,0.00,meteohub,2013-01-03 06:15:00,
2013-01-03 01:20:00,21.9,13.3,30.17,NW,310,0.0,0.0,69,0.00,,,0.00,meteohub,2013-01-03 06:20:00,
2013-01-03 01:25:00,21.9,12.9,30.17,NW,310,0.0,0.0,68,0.00,,,0.00,meteohub,2013-01-03 06:25:00,
2013-01-03 01:30:00,21.7,12.7,30.17,NW,310,0.0,0.0,68,0.00,,,0.00,meteohub,2013-01-03 06:30:00,
2013-01-03 01:36:00,21.7,13.1,30.18,NW,310,0.0,0.0,69,0.00,,,0.00,meteohub,2013-01-03 06:36:00,
2013-01-03 01:41:00,21.6,12.9,30.18,NW,310,0.0,0.0,69,0.00,,,0.00,meteohub,2013-01-03 06:41:00,
2013-01-03 01:46:00,21.6,13.3,30.17,NW,310,0.0,0.0,70,0.00,,,0.00,meteohub,2013-01-03 06:46:00,
2013-01-03 01:51:00,21.4,12.7,30.17,NW,310,0.0,0.0,69,0.00,,,0.00,meteohub,2013-01-03 06:51:00,
2013-01-03 01:57:00,21.0,12.2,30.17,NW,310,0.0,0.0,68,0.00,,,0.00,meteohub,2013-01-03 06:57:00,
2013-01-03 02:02:00,20.8,10.9,30.18,NW,310,0.0,0.0,65,0.00,,,0.00,meteohub,2013-01-03 07:02:00,
2013-01-03 02:07:00,20.7,10.4,30.18,NW,310,0.0,0.0,64,0.00,,,0.00,meteohub,2013-01-03 07:07:00,
2013-01-03 02:12:00,20.5,10.2,30.18,NW,310,0.0,0.0,64,0.00,,,0.00,meteohub,2013-01-03 07:12:00,
2013-01-03 02:17:00,20.3,10.0,30.18,NW,310,0.0,0.0,64,0.00,,,0.00,meteohub,2013-01-03 07:17:00,
2013-01-03 02:22:00,20.1,9.1,30.18,NW,310,0.0,0.0,62,0.00,,,0.00,meteohub,2013-01-03 07:22:00,
2013-01-03 02:27:00,19.9,9.0,30.17,NW,310,0.0,0.0,62,0.00,,,0.00,meteohub,2013-01-03 07:27:00,
2013-01-03 02:32:00,19.9,8.2,30.17,NW,310,0.0,0.0,60,0.00,,,0.00,meteohub,2013-01-03 07:32:00,
2013-01-03 02:37:00,19.8,8.8,30.17,NW,310,0.0,0.0,62,0.00,,,0.00,meteohub,2013-01-03 07:37:00,
2013-01-03 02:42:00,19.8,8.8,30.17,NW,310,0.0,0.0,62,0.00,,,0.00,meteohub,2013-01-03 07:42:00,
2013-01-03 02:47:00,19.6,8.6,30.17,NW,310,0.0,0.0,62,0.00,,,0.00,meteohub,2013-01-03 07:47:00,
2013-01-03 02:52:00,19.2,8.1,30.17,NW,310,0.0,0.0,61,0.00,,,0.00,meteohub,2013-01-03 07:52:00,
2013-01-03 02:57:00,19.0,7.5,30.17,NW,310,0.0,0.0,60,0.00,,,0.00,meteohub,2013-01-03 07:57:00,
2013-01-03 03:02:00,19.0,7.9,30.17,NW,310,0.0,0.0,61,0.00,,,0.00,meteohub,2013-01-03 08:02:00,
2013-01-03 03:07:00,18.9,7.7,30.17,NW,310,0.0,0.0,61,0.00,,,0.00,meteohub,2013-01-03 08:07:00,
2013-01-03 03:12:00,18.7,7.9,30.17,NW,310,0.0,0.0,62,0.00,,,0.00,meteohub,2013-01-03 08:12:00,
2013-01-03 03:17:00,18.3,6.8,30.17,NW,310,0.0,0.0,60,0.00,,,0.00,meteohub,2013-01-03 08:17:00,
2013-01-03 03:22:00,18.1,6.6,30.17,NW,310,0.0,0.0,60,0.00,,,0.00,meteohub,2013-01-03 08:22:00,
2013-01-03 03:27:00,18.0,6.1,30.17,NW,310,0.0,0.0,59,0.00,,,0.00,meteohub,2013-01-03 08:27:00,
2013-01-03 03:32:00,17.8,6.6,30.17,NW,310,0.0,0.0,61,0.00,,,0.00,meteohub,2013-01-03 08:32:00,
2013-01-03 03:37:00,17.4,6.3,30.17,NW,310,0.0,0.0,61,0.00,,,0.00,meteohub,2013-01-03 08:37:00,
2013-01-03 03:42:00,17.2,6.1,30.17,NW,310,0.0,0.0,61,0.00,,,0.00,meteohub,2013-01-03 08:42:00,
2013-01-03 03:47:00,17.1,6.3,30.17,NW,310,0.0,0.0,62,0.00,,,0.00,meteohub,2013-01-03 08:47:00,
2013-01-03 03:52:00,17.1,5.5,30.17,NW,310,0.0,0.0,60,0.00,,,0.00,meteohub,2013-01-03 08:52:00,
2013-01-03 03:57:00,16.9,5.7,30.17,NW,310,0.0,0.0,61,0.00,,,0.00,meteohub,2013-01-03 08:57:00,
2013-01-03 04:03:00,16.7,5.9,30.17,NW,310,0.0,0.0,62,0.00,,,0.00,meteohub,2013-01-03 09:03:00,
2013-01-03 04:08:00,16.5,6.1,30.17,NW,310,0.0,0.0,63,0.00,,,0.00,meteohub,2013-01-03 09:08:00,
2013-01-03 04:13:00,16.3,5.9,30.17,NW,310,0.0,0.0,63,0.00,,,0.00,meteohub,2013-01-03 09:13:00,
2013-01-03 04:18:00,16.2,5.7,30.17,NW,310,0.0,0.0,63,0.00,,,0.00,meteohub,2013-01-03 09:18:00,
2013-01-03 04:23:00,16.0,5.5,30.17,NW,310,0.0,0.0,63,0.00,,,0.00,meteohub,2013-01-03 09:23:00,
2013-01-03 04:28:00,15.8,5.7,30.17,NW,310,0.0,0.0,64,0.00,,,0.00,meteohub,2013-01-03 09:28:00,
2013-01-03 04:33:00,15.6,5.4,30.16,NW,310,0.0,0.0,63,0.00,,,0.00,meteohub,2013-01-03 09:33:00,
2013-01-03 04:38:00,15.4,5.2,30.17,NW,310,0.0,0.0,63,0.00,,,0.00,meteohub,2013-01-03 09:38:00,
2013-01-03 04:43:00,15.4,4.8,30.17,NW,310,0.0,0.0,62,0.00,,,0.00,meteohub,2013-01-03 09:43:00,
2013-01-03 04:49:00,15.4,5.2,30.18,NW,310,0.0,0.0,63,0.00,,,0.00,meteohub,2013-01-03 09:49:00,
2013-01-03 04:54:00,15.3,5.4,30.18,NW,310,0.0,0.0,64,0.00,,,0.00,meteohub,2013-01-03 09:54:00,
2013-01-03 04:59:00,15.3,5.5,30.17,NW,310,0.0,0.0,65,0.00,,,0.00,meteohub,2013-01-03 09:59:00,
2013-01-03 05:04:00,15.1,5.4,30.18,NW,310,0.0,0.0,65,0.00,,,0.00,meteohub,2013-01-03 10:04:00,
2013-01-03 05:09:00,14.7,5.2,30.18,NW,310,0.0,0.0,65,0.00,,,0.00,meteohub,2013-01-03 10:09:00,
2013-01-03 05:14:00,14.7,4.8,30.18,NW,310,0.0,0.0,64,0.00,,,0.00,meteohub,2013-01-03 10:14:00,
2013-01-03 05:19:00,14.5,5.0,30.18,NW,310,0.0,0.0,65,0.00,,,0.00,meteohub,2013-01-03 10:19:00,
2013-01-03 05:24:00,14.4,4.5,30.17,NW,310,0.0,0.0,64,0.00,,,0.00,meteohub,2013-01-03 10:24:00,
2013-01-03 05:29:00,14.2,5.0,30.18,NW,310,0.0,0.0,66,0.00,,,0.00,meteohub,2013-01-03 10:29:00,
2013-01-03 05:34:00,14.0,4.1,30.18,NW,310,0.0,0.0,64,0.00,,,0.00,meteohub,2013-01-03 10:34:00,
2013-01-03 05:39:00,13.8,4.6,30.18,NW,310,0.0,0.0,66,0.00,,,0.00,meteohub,2013-01-03 10:39:00,
2013-01-03 05:44:00,13.6,4.5,30.18,NW,310,0.0,0.0,66,0.00,,,0.00,meteohub,2013-01-03 10:44:00,
2013-01-03 05:49:00,13.6,4.5,30.18,NW,310,0.0,0.0,66,0.00,,,0.00,meteohub,2013-01-03 10:49:00,
2013-01-03 05:54:00,13.5,4.8,30.18,NW,310,0.0,0.0,68,0.00,,,0.00,meteohub,2013-01-03 10:54:00,
2013-01-03 05:59:00,13.3,4.5,30.18,NW,310,0.0,0.0,67,0.00,,,0.00,meteohub,2013-01-03 10:59:00,
2013-01-03 06:04:00,13.1,4.3,30.18,NW,310,0.0,0.0,67,0.00,,,0.00,meteohub,2013-01-03 11:04:00,
2013-01-03 06:09:00,12.9,3.7,30.18,NW,310,0.0,0.0,66,0.00,,,0.00,meteohub,2013-01-03 11:09:00,
2013-01-03 06:15:00,12.7,3.2,30.18,NW,310,0.0,0.0,65,0.00,,,0.00,meteohub,2013-01-03 11:15:00,
2013-01-03 06:20:00,12.7,2.8,30.18,NW,310,0.0,0.0,64,0.00,,,0.00,meteohub,2013-01-03 11:20:00,
2013-01-03 06:25:00,12.7,2.8,30.18,NW,310,0.0,0.0,64,0.00,,,0.00,meteohub,2013-01-03 11:25:00,
2013-01-03 06:30:00,12.9,3.0,30.18,NW,310,0.0,0.0,64,0.00,,,0.00,meteohub,2013-01-03 11:30:00,
2013-01-03 06:36:00,12.9,2.7,30.18,NW,310,0.0,0.0,63,0.00,,,0.00,meteohub,2013-01-03 11:36:00,
2013-01-03 06:41:00,12.9,2.7,30.19,NW,310,0.0,0.0,63,0.00,,,0.00,meteohub,2013-01-03 11:41:00,
2013-01-03 06:46:00,12.9,2.3,30.19,NW,310,0.0,0.0,62,0.00,,,0.00,meteohub,2013-01-03 11:46:00,
2013-01-03 06:51:00,12.7,2.8,30.19,NW,310,0.0,0.0,64,0.00,,,0.00,meteohub,2013-01-03 11:51:00,
2013-01-03 06:56:00,12.7,2.5,30.19,NW,310,0.0,0.0,63,0.00,,,0.00,meteohub,2013-01-03 11:56:00,
2013-01-03 07:01:00,12.6,2.7,30.19,NW,310,0.0,0.0,64,0.00,,,0.00,meteohub,2013-01-03 12:01:00,
2013-01-03 07:06:00,12.4,2.5,30.19,NW,310,0.0,0.0,64,0.00,,,0.00,meteohub,2013-01-03 12:06:00,
2013-01-03 07:12:00,12.0,2.1,30.19,NW,310,0.0,0.0,64,0.00,,,0.00,meteohub,2013-01-03 12:12:00,
2013-01-03 07:17:00,12.0,2.1,30.20,NW,310,0.0,0.0,64,0.00,,,0.00,meteohub,2013-01-03 12:17:00,
2013-01-03 07:22:00,12.0,2.1,30.19,NW,310,0.0,0.0,64,0.00,,,0.00,meteohub,2013-01-03 12:22:00,
2013-01-03 07:27:00,12.0,2.5,30.19,NW,310,0.0,0.0,65,0.00,,,0.00,meteohub,2013-01-03 12:27:00,
2013-01-03 07:32:00,12.0,2.5,30.19,NW,310,0.0,0.0,65,0.00,,,0.00,meteohub,2013-01-03 12:32:00,
2013-01-03 07:37:00,11.8,2.3,30.19,NW,310,0.0,0.0,65,0.00,,,0.00,meteohub,2013-01-03 12:37:00,
2013-01-03 07:42:00,11.8,2.3,30.19,NW,310,0.0,0.0,65,0.00,,,0.00,meteohub,2013-01-03 12:42:00,
2013-01-03 07:47:00,11.8,2.3,30.19,NW,310,0.0,0.0,65,0.00,,,0.00,meteohub,2013-01-03 12:47:00,
2013-01-03 07:52:00,11.8,2.3,30.19,NW,310,0.0,0.0,65,0.00,,,0.00,meteohub,2013-01-03 12:52:00,
2013-01-03 07:57:00,11.8,2.7,30.19,NW,310,0.0,0.0,66,0.00,,,0.00,meteohub,2013-01-03 12:57:00,
2013-01-03 08:02:00,11.8,2.7,30.19,NW,310,0.0,0.0,66,0.00,,,0.00,meteohub,2013-01-03 13:02:00,
2013-01-03 08:07:00,11.7,2.5,30.19,NW,310,0.0,0.0,66,0.00,,,0.00,meteohub,2013-01-03 13:07:00,
2013-01-03 08:12:00,11.7,2.8,30.19,NW,310,0.0,0.0,67,0.00,,,0.00,meteohub,2013-01-03 13:12:00,
2013-01-03 08:17:00,11.5,2.7,30.19,NW,310,0.0,0.0,67,0.00,,,0.00,meteohub,2013-01-03 13:17:00,
2013-01-03 08:22:00,11.5,3.0,30.19,NW,310,0.0,0.0,68,0.00,,,0.00,meteohub,2013-01-03 13:22:00,
2013-01-03 08:27:00,11.1,2.7,30.19,NW,310,0.0,0.0,68,0.00,,,0.00,meteohub,2013-01-03 13:27:00,
2013-01-03 08:32:00,11.1,3.0,30.19,NW,310,0.0,0.0,69,0.00,,,0.00,meteohub,2013-01-03 13:32:00,
2013-01-03 08:37:00,11.5,3.6,30.19,NW,310,0.0,0.0,70,0.00,,,0.00,meteohub,2013-01-03 13:37:00,
2013-01-03 08:42:00,11.7,3.7,30.19,NW,310,0.0,0.0,70,0.00,,,0.00,meteohub,2013-01-03 13:42:00,
2013-01-03 08:47:00,11.8,3.9,30.19,NW,310,0.0,0.0,70,0.00,,,0.00,meteohub,2013-01-03 13:47:00,
2013-01-03 08:52:00,12.2,4.3,30.19,NW,310,0.0,0.0,70,0.00,,,0.00,meteohub,2013-01-03 13:52:00,
2013-01-03 08:57:00,12.4,4.1,30.19,NW,310,0.0,0.0,69,0.00,,,0.00,meteohub,2013-01-03 13:57:00,
2013-01-03 09:02:00,12.7,4.5,30.19,NW,310,0.0,0.0,69,0.00,,,0.00,meteohub,2013-01-03 14:02:00,
2013-01-03 09:07:00,13.1,5.2,30.19,NW,310,0.0,0.0,70,0.00,,,0.00,meteohub,2013-01-03 14:07:00,
2013-01-03 09:12:00,13.6,5.7,30.19,NW,310,0.0,0.0,70,0.00,,,0.00,meteohub,2013-01-03 14:12:00,
2013-01-03 09:17:00,14.4,6.1,30.19,NW,310,0.0,0.0,69,0.00,,,0.00,meteohub,2013-01-03 14:17:00,
2013-01-03 09:22:00,14.7,5.7,30.19,NW,310,0.0,0.0,67,0.00,,,0.00,meteohub,2013-01-03 14:22:00,
2013-01-03 09:27:00,15.3,5.5,30.19,NW,310,0.0,0.0,65,0.00,,,0.00,meteohub,2013-01-03 14:27:00,
2013-01-03 09:32:00,15.6,6.3,30.19,NW,310,0.0,0.0,66,0.00,,,0.00,meteohub,2013-01-03 14:32:00,
2013-01-03 09:37:00,16.2,6.4,30.19,NW,310,0.0,0.0,65,0.00,,,0.00,meteohub,2013-01-03 14:37:00,
2013-01-03 09:42:00,16.5,6.8,30.20,NW,310,0.0,0.0,65,0.00,,,0.00,meteohub,2013-01-03 14:42:00,
2013-01-03 09:47:00,16.9,6.8,30.20,NW,310,0.0,0.0,64,0.00,,,0.00,meteohub,2013-01-03 14:47:00,
2013-01-03 09:52:00,17.2,7.2,30.19,NW,310,0.0,0.0,64,0.00,,,0.00,meteohub,2013-01-03 14:52:00,
2013-01-03 09:58:00,17.8,7.3,30.20,NW,310,0.0,0.0,63,0.00,,,0.00,meteohub,2013-01-03 14:58:00,
2013-01-03 10:03:00,18.0,7.9,30.20,NW,310,0.0,0.0,64,0.00,,,0.00,meteohub,2013-01-03 15:03:00,
2013-01-03 10:08:00,18.5,8.4,30.20,NW,310,0.0,0.0,64,0.00,,,0.00,meteohub,2013-01-03 15:08:00,
2013-01-03 10:13:00,18.9,8.4,30.19,NW,310,0.0,0.0,63,0.00,,,0.00,meteohub,2013-01-03 15:13:00,
2013-01-03 10:18:00,18.9,8.1,30.19,NW,310,0.0,0.0,62,0.00,,,0.00,meteohub,2013-01-03 15:18:00,
2013-01-03 10:23:00,18.9,8.8,30.19,NW,310,0.0,0.0,64,0.00,,,0.00,meteohub,2013-01-03 15:23:00,
2013-01-03 10:28:00,19.0,9.0,30.19,NW,310,0.0,0.0,64,0.00,,,0.00,meteohub,2013-01-03 15:28:00,
2013-01-03 10:33:00,19.6,9.0,30.19,NW,310,0.0,0.0,63,0.00,,,0.00,meteohub,2013-01-03 15:33:00,
2013-01-03 10:38:00,19.9,9.3,30.18,NW,310,0.0,0.0,63,0.00,,,0.00,meteohub,2013-01-03 15:38:00,
2013-01-03 10:43:00,20.3,10.8,30.18,NW,310,0.0,0.0,66,0.00,,,0.00,meteohub,2013-01-03 15:43:00,
2013-01-03 10:49:00,20.8,10.6,30.18,NW,310,0.0,0.0,64,0.00,,,0.00,meteohub,2013-01-03 15:49:00,
2013-01-03 10:54:00,21.0,11.8,30.18,NW,310,0.0,0.0,67,0.00,,,0.00,meteohub,2013-01-03 15:54:00,
2013-01-03 10:59:00,21.7,11.8,30.17,NW,310,0.0,0.0,65,0.00,,,0.00,meteohub,2013-01-03 15:59:00,
2013-01-03 11:04:00,22.3,12.7,30.17,NW,310,0.0,0.0,66,0.00,,,0.00,meteohub,2013-01-03 16:04:00,
2013-01-03 11:09:00,22.8,12.7,30.17,NW,310,0.0,0.0,65,0.00,,,0.00,meteohub,2013-01-03 16:09:00,
2013-01-03 11:15:00,23.0,12.2,30.16,NW,310,0.0,0.0,63,0.00,,,0.00,meteohub,2013-01-03 16:15:00,
2013-01-03 11:20:00,23.2,12.7,30.16,NW,310,0.0,0.0,64,0.00,,,0.00,meteohub,2013-01-03 16:20:00,
2013-01-03 11:25:00,23.4,12.9,30.16,NW,310,0.0,0.0,64,0.00,,,0.00,meteohub,2013-01-03 16:25:00,
2013-01-03 11:30:00,23.4,12.9,30.16,NW,310,0.0,0.0,64,0.00,,,0.00,meteohub,2013-01-03 16:30:00,
2013-01-03 11:35:00,23.5,12.7,30.15,NW,310,0.0,0.0,63,0.00,,,0.00,meteohub,2013-01-03 16:35:00,
2013-01-03 11:41:00,23.5,13.1,30.15,NW,310,0.0,0.0,64,0.00,,,0.00,meteohub,2013-01-03 16:41:00,
2013-01-03 11:46:00,23.9,13.8,30.14,NW,310,0.0,0.0,65,0.00,,,0.00,meteohub,2013-01-03 16:46:00,
2013-01-03 11:51:00,24.3,13.8,30.14,NW,310,0.0,0.0,64,0.00,,,0.00,meteohub,2013-01-03 16:51:00,
2013-01-03 11:56:00,24.6,14.5,30.14,NW,310,0.0,0.0,65,0.00,,,0.00,meteohub,2013-01-03 16:56:00,
2013-01-03 12:01:00,25.0,14.5,30.13,NW,310,0.0,0.0,64,0.00,,,0.00,meteohub,2013-01-03 17:01:00,
2013-01-03 12:06:00,25.2,14.4,30.13,NW,310,0.0,0.0,63,0.00,,,0.00,meteohub,2013-01-03 17:06:00,
2013-01-03 12:12:00,25.3,14.5,30.13,NW,310,0.0,0.0,63,0.00,,,0.00,meteohub,2013-01-03 17:12:00,
2013-01-03 12:17:00,25.7,15.6,30.13,NW,310,0.0,0.0,65,0.00,,,0.00,meteohub,2013-01-03 17:17:00,
2013-01-03 12:22:00,25.9,14.4,30.12,NW,310,0.0,0.0,61,0.00,,,0.00,meteohub,2013-01-03 17:22:00,
2013-01-03 12:27:00,25.9,14.4,30.12,NW,310,0.0,0.0,61,0.00,,,0.00,meteohub,2013-01-03 17:27:00,
2013-01-03 12:32:00,26.1,15.3,30.12,NW,310,0.0,0.0,63,0.00,,,0.00,meteohub,2013-01-03 17:32:00,
2013-01-03 12:37:00,26.2,15.4,30.11,NW,310,0.0,0.0,63,0.00,,,0.00,meteohub,2013-01-03 17:37:00,
2013-01-03 12:42:00,26.8,15.1,30.11,NW,310,0.0,0.0,61,0.00,,,0.00,meteohub,2013-01-03 17:42:00,
2013-01-03 12:47:00,27.1,15.8,30.11,NW,310,0.0,0.0,62,0.00,,,0.00,meteohub,2013-01-03 17:47:00,
2013-01-03 12:52:00,27.3,16.3,30.10,NW,310,0.0,0.0,63,0.00,,,0.00,meteohub,2013-01-03 17:52:00,
2013-01-03 12:57:00,27.5,16.5,30.10,NW,310,0.0,0.0,63,0.00,,,0.00,meteohub,2013-01-03 17:57:00,
2013-01-03 13:02:00,27.7,17.1,30.10,NW,310,0.0,0.0,64,0.00,,,0.00,meteohub,2013-01-03 18:02:00,
2013-01-03 13:07:00,27.9,16.5,30.10,NW,310,0.0,0.0,62,0.00,,,0.00,meteohub,2013-01-03 18:07:00,
2013-01-03 13:12:00,28.2,17.6,30.10,NW,310,0.0,0.0,64,0.00,,,0.00,meteohub,2013-01-03 18:12:00,
2013-01-03 13:17:00,28.4,16.7,30.09,NW,310,0.0,0.0,61,0.00,,,0.00,meteohub,2013-01-03 18:17:00,
2013-01-03 13:22:00,28.2,16.2,30.09,NW,310,0.0,0.0,60,0.00,,,0.00,meteohub,2013-01-03 18:22:00,
2013-01-03 13:27:00,28.2,16.5,30.09,NW,310,0.0,0.0,61,0.00,,,0.00,meteohub,2013-01-03 18:27:00,
2013-01-03 13:32:00,28.2,16.5,30.09,NW,310,0.0,0.0,61,0.00,,,0.00,meteohub,2013-01-03 18:32:00,
2013-01-03 13:37:00,28.2,16.9,30.09,NW,310,0.0,0.0,62,0.00,,,0.00,meteohub,2013-01-03 18:37:00,
2013-01-03 13:42:00,28.2,15.8,30.09,NW,310,0.0,0.0,59,0.00,,,0.00,meteohub,2013-01-03 18:42:00,
2013-01-03 13:47:00,28.4,17.1,30.09,NW,310,0.0,0.0,62,0.00,,,0.00,meteohub,2013-01-03 18:47:00,
2013-01-03 13:52:00,28.6,16.5,30.09,NW,310,0.0,0.0,60,0.00,,,0.00,meteohub,2013-01-03 18:52:00,
2013-01-03 13:57:00,28.8,16.2,30.09,NW,310,0.0,0.0,59,0.00,,,0.00,meteohub,2013-01-03 18:57:00,
2013-01-03 14:02:00,28.8,16.2,30.09,NW,310,0.0,0.0,59,0.00,,,0.00,meteohub,2013-01-03 19:02:00,
2013-01-03 14:07:00,28.8,16.7,30.09,NW,310,0.0,0.0,60,0.00,,,0.00,meteohub,2013-01-03 19:07:00,
2013-01-03 14:12:00,28.8,16.2,30.09,NW,310,0.0,0.0,59,0.00,,,0.00,meteohub,2013-01-03 19:12:00,
2013-01-03 14:17:00,28.6,16.2,30.09,NW,310,0.0,0.0,59,0.00,,,0.00,meteohub,2013-01-03 19:17:00,
2013-01-03 14:51:00,28.6,16.5,30.09,NW,310,0.0,0.0,60,0.00,,,0.00,meteohub,2013-01-03 19:51:00,
2013-01-03 14:56:00,28.4,16.3,30.08,NW,310,0.0,0.0,60,0.00,,,0.00,meteohub,2013-01-03 19:56:00,
2013-01-03 15:01:00,28.2,16.5,30.08,NW,310,0.0,0.0,61,0.00,,,0.00,meteohub,2013-01-03 20:01:00,
2013-01-03 15:06:00,28.2,16.5,30.08,NW,310,0.0,0.0,61,0.00,,,0.00,meteohub,2013-01-03 20:06:00,
2013-01-03 15:11:00,28.2,16.2,30.08,NW,310,0.0,0.0,60,0.00,,,0.00,meteohub,2013-01-03 20:11:00,
2013-01-03 15:17:00,28.0,15.3,30.08,NW,310,0.0,0.0,58,0.00,,,0.00,meteohub,2013-01-03 20:17:00,
2013-01-03 15:22:00,27.9,15.1,30.08,NW,310,0.0,0.0,58,0.00,,,0.00,meteohub,2013-01-03 20:22:00,
2013-01-03 15:27:00,27.7,15.6,30.08,NW,310,0.0,0.0,60,0.00,,,0.00,meteohub,2013-01-03 20:27:00,
2013-01-03 15:32:00,27.3,14.9,30.08,NW,310,0.0,0.0,59,0.00,,,0.00,meteohub,2013-01-03 20:32:00,
2013-01-03 15:37:00,27.1,15.4,30.09,NW,310,0.0,0.0,61,0.00,,,0.00,meteohub,2013-01-03 20:37:00,
2013-01-03 15:42:00,27.0,15.6,30.08,NW,310,0.0,0.0,62,0.00,,,0.00,meteohub,2013-01-03 20:42:00,
2013-01-03 15:47:00,27.0,15.6,30.09,NW,310,0.0,0.0,62,0.00,,,0.00,meteohub,2013-01-03 20:47:00,
2013-01-03 15:52:00,26.6,14.5,30.09,NW,310,0.0,0.0,60,0.00,,,0.00,meteohub,2013-01-03 20:52:00,
2013-01-03 15:57:00,26.4,14.7,30.09,NW,310,0.0,0.0,61,0.00,,,0.00,meteohub,2013-01-03 20:57:00,
2013-01-03 16:02:00,26.4,14.7,30.09,NW,310,0.0,0.0,61,0.00,,,0.00,meteohub,2013-01-03 21:02:00,
2013-01-03 16:07:00,26.2,14.5,30.08,NW,310,0.0,0.0,61,0.00,,,0.00,meteohub,2013-01-03 21:07:00,
2013-01-03 16:12:00,26.2,16.2,30.08,NW,310,0.0,0.0,65,0.00,,,0.00,meteohub,2013-01-03 21:12:00,
2013-01-03 16:17:00,26.1,15.3,30.09,NW,310,0.0,0.0,63,0.00,,,0.00,meteohub,2013-01-03 21:17:00,
2013-01-03 16:22:00,26.1,15.3,30.09,NW,310,0.0,0.0,63,0.00,,,0.00,meteohub,2013-01-03 21:22:00,
2013-01-03 16:27:00,25.9,14.7,30.09,NW,310,0.0,0.0,62,0.00,,,0.00,meteohub,2013-01-03 21:27:00,
2013-01-03 16:32:00,25.7,14.9,30.09,NW,310,0.0,0.0,63,0.00,,,0.00,meteohub,2013-01-03 21:32:00,
2013-01-03 16:37:00,25.5,15.1,30.09,NW,310,0.0,0.0,64,0.00,,,0.00,meteohub,2013-01-03 21:37:00,
2013-01-03 16:43:00,25.3,14.5,30.09,NW,310,0.0,0.0,63,0.00,,,0.00,meteohub,2013-01-03 21:43:00,
2013-01-03 16:48:00,25.2,14.4,30.09,NW,310,0.0,0.0,63,0.00,,,0.00,meteohub,2013-01-03 21:48:00,
2013-01-03 16:53:00,25.2,14.7,30.09,NW,310,0.0,0.0,64,0.00,,,0.00,meteohub,2013-01-03 21:53:00,
2013-01-03 16:58:00,24.8,14.7,30.09,NW,310,0.0,0.0,65,0.00,,,0.00,meteohub,2013-01-03 21:58:00,
2013-01-03 17:04:00,24.4,14.4,30.09,NW,310,0.0,0.0,65,0.00,,,0.00,meteohub,2013-01-03 22:04:00,
2013-01-03 17:09:00,24.1,13.6,30.09,NW,310,0.0,0.0,64,0.00,,,0.00,meteohub,2013-01-03 22:09:00,
2013-01-03 17:14:00,23.7,14.0,30.09,NW,310,0.0,0.0,66,0.00,,,0.00,meteohub,2013-01-03 22:14:00,
2013-01-03 17:19:00,23.5,13.8,30.09,NW,310,0.0,0.0,66,0.00,,,0.00,meteohub,2013-01-03 22:19:00,
2013-01-03 17:24:00,23.2,13.5,30.09,NW,310,0.0,0.0,66,0.00,,,0.00,meteohub,2013-01-03 22:24:00,
2013-01-03 17:29:00,22.8,13.5,30.10,NW,310,0.0,0.0,67,0.00,,,0.00,meteohub,2013-01-03 22:29:00,
2013-01-03 17:34:00,22.6,13.6,30.10,NW,310,0.0,0.0,68,0.00,,,0.00,meteohub,2013-01-03 22:34:00,
2013-01-03 17:40:00,22.5,14.2,30.10,NW,310,0.0,0.0,70,0.00,,,0.00,meteohub,2013-01-03 22:40:00,
2013-01-03 17:45:00,22.1,13.5,30.10,NW,310,0.0,0.0,69,0.00,,,0.00,meteohub,2013-01-03 22:45:00,
2013-01-03 17:50:00,21.7,13.1,30.09,NW,310,0.0,0.0,69,0.00,,,0.00,meteohub,2013-01-03 22:50:00,
2013-01-03 17:55:00,21.7,13.5,30.09,NW,310,0.0,0.0,70,0.00,,,0.00,meteohub,2013-01-03 22:55:00,
2013-01-03 18:00:00,21.7,13.5,30.09,NW,310,0.0,0.0,70,0.00,,,0.00,meteohub,2013-01-03 23:00:00,
2013-01-03 18:05:00,21.4,12.7,30.09,North,-999,-999.0,0.0,69,0.00,,,0.00,meteohub,2013-01-03 23:05:00,
2013-01-03 18:11:00,21.2,12.6,30.09,NW,310,0.0,0.0,69,0.00,,,0.00,meteohub,2013-01-03 23:11:00,
2013-01-03 18:16:00,21.2,12.6,30.09,NW,310,0.0,0.0,69,0.00,,,0.00,meteohub,2013-01-03 23:16:00,
2013-01-03 18:21:00,21.2,13.3,30.09,NW,310,0.0,0.0,71,0.00,,,0.00,meteohub,2013-01-03 23:21:00,
2013-01-03 18:26:00,21.0,13.1,30.09,NW,310,0.0,0.0,71,0.00,,,0.00,meteohub,2013-01-03 23:26:00,
2013-01-03 18:31:00,20.7,12.4,30.10,NW,310,0.0,0.0,70,0.00,,,0.00,meteohub,2013-01-03 23:31:00,
2013-01-03 18:36:00,20.5,12.6,30.09,NW,310,0.0,0.0,71,0.00,,,0.00,meteohub,2013-01-03 23:36:00,
2013-01-03 18:42:00,20.3,12.7,30.09,NW,310,0.0,0.0,72,0.00,,,0.00,meteohub,2013-01-03 23:42:00,
2013-01-03 18:47:00,19.9,12.4,30.09,NW,310,0.0,0.0,72,0.00,,,0.00,meteohub,2013-01-03 23:47:00,
2013-01-03 18:52:00,19.8,12.2,30.09,NW,310,0.0,0.0,72,0.00,,,0.00,meteohub,2013-01-03 23:52:00,
2013-01-03 18:57:00,19.6,12.4,30.09,NW,310,0.0,0.0,73,0.00,,,0.00,meteohub,2013-01-03 23:57:00,
2013-01-03 19:02:00,19.2,12.0,30.09,NW,310,0.0,0.0,73,0.00,,,0.00,meteohub,2013-01-04 00:02:00,
2013-01-03 19:07:00,19.0,12.2,30.09,NW,310,0.0,0.0,74,0.00,,,0.00,meteohub,2013-01-04 00:07:00,
2013-01-03 19:12:00,18.7,11.5,30.09,NW,310,0.0,0.0,73,0.00,,,0.00,meteohub,2013-01-04 00:12:00,
2013-01-03 19:17:00,18.5,11.7,30.10,NW,310,0.0,0.0,74,0.00,,,0.00,meteohub,2013-01-04 00:17:00,
2013-01-03 19:22:00,18.1,11.5,30.10,NW,310,0.0,0.0,75,0.00,,,0.00,meteohub,2013-01-04 00:22:00,
2013-01-03 19:27:00,18.1,11.8,30.10,NW,310,0.0,0.0,76,0.00,,,0.00,meteohub,2013-01-04 00:27:00,
2013-01-03 19:32:00,18.0,11.7,30.09,NW,310,0.0,0.0,76,0.00,,,0.00,meteohub,2013-01-04 00:32:00,
2013-01-03 19:37:00,18.0,11.7,30.09,NW,310,0.0,0.0,76,0.00,,,0.00,meteohub,2013-01-04 00:37:00,
2013-01-03 19:42:00,17.8,11.5,30.09,NW,310,0.0,0.0,76,0.00,,,0.00,meteohub,2013-01-04 00:42:00,
2013-01-03 19:47:00,17.6,11.8,30.09,NW,310,0.0,0.0,78,0.00,,,0.00,meteohub,2013-01-04 00:47:00,
2013-01-03 19:52:00,17.4,12.0,30.09,NW,310,0.0,0.0,79,0.00,,,0.00,meteohub,2013-01-04 00:52:00,
2013-01-03 19:57:00,17.4,12.0,30.09,NW,310,0.0,0.0,79,0.00,,,0.00,meteohub,2013-01-04 00:57:00,
2013-01-03 20:02:00,17.4,12.4,30.09,NW,310,0.0,0.0,80,0.00,,,0.00,meteohub,2013-01-04 01:02:00,
2013-01-03 20:07:00,17.6,12.6,30.09,NW,310,0.0,0.0,80,0.00,,,0.00,meteohub,2013-01-04 01:07:00,
2013-01-03 20:12:00,17.6,12.7,30.08,NW,310,0.0,0.0,81,0.00,,,0.00,meteohub,2013-01-04 01:12:00,
2013-01-03 20:17:00,17.8,13.3,30.08,NW,310,0.0,0.0,82,0.00,,,0.00,meteohub,2013-01-04 01:17:00,
2013-01-03 20:22:00,17.8,13.3,30.08,NW,310,0.0,0.0,82,0.00,,,0.00,meteohub,2013-01-04 01:22:00,
2013-01-03 20:27:00,18.0,13.5,30.08,NW,310,0.0,0.0,82,0.00,,,0.00,meteohub,2013-01-04 01:27:00,
2013-01-03 20:32:00,18.1,13.8,30.08,NW,310,0.0,0.0,83,0.00,,,0.00,meteohub,2013-01-04 01:32:00,
2013-01-03 20:37:00,18.1,13.8,30.08,NW,310,0.0,0.0,83,0.00,,,0.00,meteohub,2013-01-04 01:37:00,
2013-01-03 20:42:00,18.3,14.0,30.08,NW,310,0.0,0.0,83,0.00,,,0.00,meteohub,2013-01-04 01:42:00,
2013-01-03 20:47:00,18.7,14.4,30.08,NW,310,0.0,0.0,83,0.00,,,0.00,meteohub,2013-01-04 01:47:00,
2013-01-03 20:52:00,18.9,14.9,30.08,NW,310,0.0,0.0,84,0.00,,,0.00,meteohub,2013-01-04 01:52:00,
2013-01-03 20:57:00,18.9,14.9,30.08,NW,310,0.0,0.0,84,0.00,,,0.00,meteohub,2013-01-04 01:57:00,
2013-01-03 21:02:00,19.0,14.7,30.08,NW,310,0.0,0.0,83,0.00,,,0.00,meteohub,2013-01-04 02:02:00,
2013-01-03 21:07:00,19.2,14.7,30.08,NW,310,0.0,0.0,82,0.00,,,0.00,meteohub,2013-01-04 02:07:00,
2013-01-03 21:12:00,19.2,14.7,30.08,NW,310,0.0,0.0,82,0.00,,,0.00,meteohub,2013-01-04 02:12:00,
2013-01-03 21:17:00,19.2,14.7,30.08,NW,310,0.0,0.0,82,0.00,,,0.00,meteohub,2013-01-04 02:17:00,
2013-01-03 21:22:00,19.2,14.7,30.08,NW,310,0.0,0.0,82,0.00,,,0.00,meteohub,2013-01-04 02:22:00,
2013-01-03 21:27:00,19.4,15.1,30.08,NW,310,0.0,0.0,83,0.00,,,0.00,meteohub,2013-01-04 02:27:00,
2013-01-03 21:32:00,20.1,15.8,30.07,NW,310,0.0,0.0,83,0.00,,,0.00,meteohub,2013-01-04 02:32:00,
2013-01-03 21:37:00,20.5,15.8,30.07,NW,310,0.0,0.0,82,0.00,,,0.00,meteohub,2013-01-04 02:37:00,
2013-01-03 21:42:00,20.7,16.0,30.06,NW,310,0.0,0.0,82,0.00,,,0.00,meteohub,2013-01-04 02:42:00,
2013-01-03 21:47:00,21.0,16.3,30.07,NW,310,0.0,0.0,82,0.00,,,0.00,meteohub,2013-01-04 02:47:00,
2013-01-03 21:52:00,21.4,16.7,30.07,NW,310,0.0,0.0,82,0.00,,,0.00,meteohub,2013-01-04 02:52:00,
2013-01-03 21:57:00,21.6,16.9,30.07,NW,310,0.0,0.0,82,0.00,,,0.00,meteohub,2013-01-04 02:57:00,
2013-01-03 22:02:00,21.7,16.9,30.08,NW,310,0.0,0.0,81,0.00,,,0.00,meteohub,2013-01-04 03:02:00,
2013-01-03 22:07:00,21.9,16.7,30.08,NW,310,0.0,0.0,80,0.00,,,0.00,meteohub,2013-01-04 03:07:00,
2013-01-03 22:12:00,22.1,16.9,30.08,NW,310,0.0,0.0,80,0.00,,,0.00,meteohub,2013-01-04 03:12:00,
2013-01-03 22:17:00,22.3,17.1,30.08,NW,310,0.0,0.0,80,0.00,,,0.00,meteohub,2013-01-04 03:17:00,
2013-01-03 22:22:00,22.5,17.2,30.08,NW,310,0.0,0.0,80,0.00,,,0.00,meteohub,2013-01-04 03:22:00,
2013-01-03 22:27:00,22.6,17.4,30.08,NW,310,0.0,0.0,80,0.00,,,0.00,meteohub,2013-01-04 03:27:00,
2013-01-03 22:32:00,22.8,17.6,30.08,NW,310,0.0,0.0,80,0.00,,,0.00,meteohub,2013-01-04 03:32:00,
2013-01-03 22:37:00,23.0,17.8,30.08,NW,310,0.0,0.0,80,0.00,,,0.00,meteohub,2013-01-04 03:37:00,
2013-01-03 22:42:00,23.2,18.0,30.08,NW,310,0.0,0.0,80,0.00,,,0.00,meteohub,2013-01-04 03:42:00,
2013-01-03 22:47:00,23.0,17.4,30.08,NW,310,0.0,0.0,79,0.00,,,0.00,meteohub,2013-01-04 03:47:00,
2013-01-03 22:52:00,22.8,17.2,30.08,NW,310,0.0,0.0,79,0.00,,,0.00,meteohub,2013-01-04 03:52:00,
2013-01-03 22:57:00,22.6,17.1,30.07,NW,310,0.0,0.0,79,0.00,,,0.00,meteohub,2013-01-04 03:57:00,
2013-01-03 23:02:00,22.6,17.1,30.07,NW,310,0.0,0.0,79,0.00,,,0.00,meteohub,2013-01-04 04:02:00,
2013-01-03 23:07:00,22.6,17.1,30.07,NW,310,0.0,0.0,79,0.00,,,0.00,meteohub,2013-01-04 04:07:00,
2013-01-03 23:12:00,22.6,17.1,30.06,NW,310,0.0,0.0,79,0.00,,,0.00,meteohub,2013-01-04 04:12:00,
2013-01-03 23:17:00,22.8,17.2,30.06,NW,310,0.0,0.0,79,0.00,,,0.00,meteohub,2013-01-04 04:17:00,
2013-01-03 23:22:00,22.8,17.2,30.06,NW,310,0.0,0.0,79,0.00,,,0.00,meteohub,2013-01-04 04:22:00,
2013-01-03 23:27:00,22.8,17.1,30.06,NW,310,0.0,0.0,78,0.00,,,0.00,meteohub,2013-01-04 04:27:00,
2013-01-03 23:32:00,22.8,17.2,30.06,NW,310,0.0,0.0,79,0.00,,,0.00,meteohub,2013-01-04 04:32:00,
2013-01-03 23:37:00,22.6,17.1,30.06,NW,310,0.0,0.0,79,0.00,,,0.00,meteohub,2013-01-04 04:37:00,
2013-01-03 23:42:00,22.6,17.1,30.06,NW,310,0.0,0.0,79,0.00,,,0.00,meteohub,2013-01-04 04:42:00,
2013-01-03 23:47:00,22.6,17.1,30.06,NW,310,0.0,0.0,79,0.00,,,0.00,meteohub,2013-01-04 04:47:00,
2013-01-03 23:52:00,22.6,17.1,30.05,NW,310,0.0,0.0,79,0.00,,,0.00,meteohub,2013-01-04 04:52:00,
2013-01-03 23:57:00,22.6,16.9,30.05,NW,310,0.0,0.0,78,0.00,,,0.00,meteohub,2013-01-04 04:57:00,